TXG930 MMMX-KSLC
Flight info
| Callsign | TXG930 |
|---|---|
| Flight time | 3h 42m |
| Altitude | 38000 |
| Route | AXIRI2A AXIRI UT138 CVM UJ41 NLD DCT DLF DCT INK J15 CNX DCT RSK DCT RIFMN J12 HELPR JAZZZ1 |
| Aircraft | B738/M-SDE1E2FGHI/LB1 |
Departure
| Time | 2026-05-05 22:37 |
|---|---|
| Airport | Mexico City Benito Juárez International Airport (MMMX) |
Arrival
| Time | 2026-05-06 02:19 |
|---|---|
| Airport | Salt Lake City International Airport (KSLC) |
| Time | Latitude | Longitude | Altitude | Speed | Heading |
|---|---|---|---|---|---|
| 2026-05-05 22:12 | 19.44191 | -99.07053 | 7302 ft | 0 kts | 329° |
| 2026-05-05 22:19 | 19.44186 | -99.07051 | 7302 ft | 3 kts | 329° |
| 2026-05-05 22:19 | 19.44163 | -99.07036 | 7302 ft | 4 kts | 329° |
| 2026-05-05 22:19 | 19.44143 | -99.07023 | 7302 ft | 4 kts | 333° |
| 2026-05-05 22:19 | 19.44121 | -99.07018 | 7302 ft | 4 kts | 29° |
| 2026-05-05 22:20 | 19.44104 | -99.07037 | 7302 ft | 2 kts | 59° |
| 2026-05-05 22:20 | 19.44101 | -99.07042 | 7302 ft | 0 kts | 59° |
| 2026-05-05 22:25 | 19.44105 | -99.07035 | 7302 ft | 2 kts | 59° |
| 2026-05-05 22:25 | 19.44117 | -99.07014 | 7302 ft | 5 kts | 59° |
| 2026-05-05 22:25 | 19.44143 | -99.06969 | 7302 ft | 8 kts | 59° |
| 2026-05-05 22:25 | 19.44172 | -99.06917 | 7302 ft | 8 kts | 59° |
| 2026-05-05 22:26 | 19.44198 | -99.06868 | 7302 ft | 8 kts | 60° |
| 2026-05-05 22:26 | 19.44225 | -99.06819 | 7302 ft | 7 kts | 56° |
| 2026-05-05 22:26 | 19.44253 | -99.06773 | 7302 ft | 7 kts | 58° |
| 2026-05-05 22:26 | 19.44279 | -99.06730 | 7302 ft | 7 kts | 58° |
| 2026-05-05 22:27 | 19.44304 | -99.06686 | 7302 ft | 7 kts | 59° |
| 2026-05-05 22:27 | 19.44328 | -99.06643 | 7302 ft | 7 kts | 59° |
| 2026-05-05 22:27 | 19.44351 | -99.06600 | 7302 ft | 7 kts | 60° |
| 2026-05-05 22:27 | 19.44373 | -99.06558 | 7302 ft | 6 kts | 60° |
| 2026-05-05 22:28 | 19.44396 | -99.06518 | 7302 ft | 6 kts | 59° |
| 2026-05-05 22:28 | 19.44420 | -99.06479 | 7302 ft | 6 kts | 57° |
| 2026-05-05 22:28 | 19.44442 | -99.06440 | 7302 ft | 6 kts | 59° |
| 2026-05-05 22:28 | 19.44454 | -99.06398 | 7302 ft | 6 kts | 87° |
| 2026-05-05 22:29 | 19.44449 | -99.06355 | 7302 ft | 6 kts | 103° |
| 2026-05-05 22:29 | 19.44440 | -99.06327 | 7302 ft | 1 kts | 111° |
| 2026-05-05 22:29 | 19.44431 | -99.06304 | 7302 ft | 0 kts | 112° |
| 2026-05-05 22:30 | 19.44422 | -99.06282 | 7302 ft | 14 kts | 112° |
| 2026-05-05 22:30 | 19.44356 | -99.06116 | 7302 ft | 35 kts | 112° |
| 2026-05-05 22:30 | 19.44348 | -99.05942 | 7302 ft | 22 kts | 56° |
| 2026-05-05 22:31 | 19.44418 | -99.05827 | 7302 ft | 3 kts | 47° |
| 2026-05-05 22:31 | 19.44425 | -99.05820 | 7302 ft | 0 kts | 37° |
| 2026-05-05 22:35 | 19.44439 | -99.05814 | 7302 ft | 9 kts | 20° |
| 2026-05-05 22:35 | 19.44510 | -99.05812 | 7302 ft | 10 kts | 357° |
| 2026-05-05 22:35 | 19.44550 | -99.05860 | 7301 ft | 10 kts | 252° |
| 2026-05-05 22:36 | 19.44478 | -99.05990 | 7301 ft | 44 kts | 239° |
| 2026-05-05 22:36 | 19.44204 | -99.06477 | 7302 ft | 110 kts | 239° |
| 2026-05-05 22:36 | 19.43712 | -99.07354 | 7302 ft | 166 kts | 239° |
| 2026-05-05 22:36 | 19.43042 | -99.08544 | 7440 ft | 201 kts | 239° |
| 2026-05-05 22:37 | 19.42340 | -99.09849 | 8076 ft | 210 kts | 239° |
| 2026-05-05 22:37 | 19.41579 | -99.11234 | 8619 ft | 225 kts | 238° |
| 2026-05-05 22:37 | 19.40729 | -99.12758 | 8872 ft | 251 kts | 239° |
| 2026-05-05 22:37 | 19.39830 | -99.14361 | 9611 ft | 246 kts | 238° |
| 2026-05-05 22:38 | 19.38937 | -99.15836 | 10667 ft | 230 kts | 236° |
| 2026-05-05 22:38 | 19.38081 | -99.17278 | 11101 ft | 245 kts | 238° |
| 2026-05-05 22:38 | 19.37357 | -99.18996 | 11334 ft | 265 kts | 258° |
| 2026-05-05 22:38 | 19.37344 | -99.20972 | 11864 ft | 272 kts | 283° |
| 2026-05-05 22:39 | 19.38134 | -99.22787 | 12556 ft | 274 kts | 309° |
| 2026-05-05 22:39 | 19.39533 | -99.24171 | 13253 ft | 276 kts | 321° |
| 2026-05-05 22:39 | 19.41052 | -99.25420 | 13868 ft | 282 kts | 322° |
| 2026-05-05 22:39 | 19.42617 | -99.26693 | 14533 ft | 284 kts | 322° |
| 2026-05-05 22:40 | 19.44193 | -99.27993 | 15166 ft | 289 kts | 322° |
| 2026-05-05 22:40 | 19.45784 | -99.29319 | 15792 ft | 293 kts | 322° |
| 2026-05-05 22:40 | 19.47396 | -99.30659 | 16398 ft | 297 kts | 325° |
| 2026-05-05 22:40 | 19.49262 | -99.31597 | 16983 ft | 301 kts | 348° |
| 2026-05-05 22:41 | 19.51399 | -99.31824 | 17172 ft | 319 kts | 0° |
| 2026-05-05 22:41 | 19.53700 | -99.31840 | 17351 ft | 341 kts | 1° |
| 2026-05-05 22:41 | 19.56102 | -99.31835 | 17476 ft | 359 kts | 1° |
| 2026-05-05 22:41 | 19.58666 | -99.31850 | 17610 ft | 377 kts | 0° |
| 2026-05-05 22:42 | 19.61345 | -99.31889 | 17750 ft | 392 kts | 0° |
| 2026-05-05 22:42 | 19.64113 | -99.31925 | 18006 ft | 399 kts | 2° |
| 2026-05-05 22:42 | 19.66852 | -99.31395 | 18203 ft | 401 kts | 18° |
| 2026-05-05 22:42 | 19.69500 | -99.30533 | 18706 ft | 403 kts | 18° |
| 2026-05-05 22:43 | 19.72215 | -99.29654 | 19347 ft | 403 kts | 18° |
| 2026-05-05 22:43 | 19.74873 | -99.28802 | 19887 ft | 404 kts | 18° |
| 2026-05-05 22:43 | 19.77576 | -99.27946 | 20356 ft | 408 kts | 18° |
| 2026-05-05 22:43 | 19.80311 | -99.27087 | 20801 ft | 411 kts | 18° |
| 2026-05-05 22:44 | 19.83069 | -99.26224 | 20962 ft | 413 kts | 18° |
| 2026-05-05 22:44 | 19.84898 | -99.25653 | 20962 ft | 412 kts | 18° |
| 2026-05-05 22:44 | 19.87648 | -99.24795 | 20975 ft | 411 kts | 18° |
| 2026-05-05 22:44 | 19.90395 | -99.23938 | 20982 ft | 412 kts | 17° |
| 2026-05-05 22:45 | 19.93147 | -99.23080 | 20980 ft | 412 kts | 17° |
| 2026-05-05 22:45 | 19.95897 | -99.22222 | 20974 ft | 412 kts | 18° |
| 2026-05-05 22:45 | 19.98659 | -99.21360 | 20970 ft | 412 kts | 18° |
| 2026-05-05 22:45 | 20.01409 | -99.20501 | 20966 ft | 412 kts | 18° |
| 2026-05-05 22:46 | 20.04167 | -99.19639 | 20940 ft | 412 kts | 17° |
| 2026-05-05 22:46 | 20.06882 | -99.18791 | 20938 ft | 413 kts | 17° |
| 2026-05-05 22:46 | 20.09644 | -99.17928 | 20922 ft | 413 kts | 17° |
| 2026-05-05 22:46 | 20.12399 | -99.17066 | 20941 ft | 412 kts | 17° |
| 2026-05-05 22:47 | 20.15166 | -99.16199 | 21042 ft | 418 kts | 17° |
| 2026-05-05 22:47 | 20.17977 | -99.15318 | 21497 ft | 419 kts | 17° |
| 2026-05-05 22:47 | 20.20775 | -99.14441 | 22048 ft | 418 kts | 17° |
| 2026-05-05 22:47 | 20.23539 | -99.13576 | 22511 ft | 420 kts | 17° |
| 2026-05-05 22:48 | 20.26356 | -99.12697 | 22905 ft | 423 kts | 17° |
| 2026-05-05 22:48 | 20.29201 | -99.11824 | 23284 ft | 425 kts | 16° |
| 2026-05-05 22:48 | 20.32058 | -99.10954 | 23670 ft | 428 kts | 16° |
| 2026-05-05 22:48 | 20.34929 | -99.10079 | 24048 ft | 430 kts | 17° |
| 2026-05-05 22:49 | 20.37819 | -99.09195 | 24410 ft | 432 kts | 17° |
| 2026-05-05 22:49 | 20.40690 | -99.08316 | 24740 ft | 435 kts | 16° |
| 2026-05-05 22:49 | 20.43609 | -99.07433 | 25062 ft | 438 kts | 14° |
| 2026-05-05 22:49 | 20.46628 | -99.06945 | 25353 ft | 441 kts | 5° |
| 2026-05-05 22:50 | 20.49706 | -99.06762 | 25694 ft | 443 kts | 2° |
| 2026-05-05 22:50 | 20.52800 | -99.06656 | 26010 ft | 445 kts | 1° |
| 2026-05-05 22:50 | 20.55911 | -99.06568 | 26313 ft | 448 kts | 1° |
| 2026-05-05 22:50 | 20.58999 | -99.06469 | 26603 ft | 450 kts | 2° |
| 2026-05-05 22:51 | 20.62141 | -99.06349 | 26883 ft | 452 kts | 2° |
| 2026-05-05 22:51 | 20.65309 | -99.06211 | 27163 ft | 455 kts | 2° |
| 2026-05-05 22:51 | 20.68476 | -99.06062 | 27462 ft | 456 kts | 2° |
| 2026-05-05 22:51 | 20.71627 | -99.05906 | 27727 ft | 459 kts | 2° |
| 2026-05-05 22:52 | 20.74826 | -99.05743 | 27966 ft | 461 kts | 2° |
| 2026-05-05 22:52 | 20.78043 | -99.05578 | 28197 ft | 464 kts | 2° |
| 2026-05-05 22:52 | 20.81285 | -99.05412 | 28460 ft | 466 kts | 2° |
| 2026-05-05 22:52 | 20.84530 | -99.05247 | 28716 ft | 468 kts | 2° |
| 2026-05-05 22:53 | 20.87758 | -99.05082 | 28976 ft | 469 kts | 2° |
| 2026-05-05 22:53 | 20.91046 | -99.04913 | 29227 ft | 471 kts | 2° |
| 2026-05-05 22:53 | 20.94333 | -99.04744 | 29481 ft | 473 kts | 2° |
| 2026-05-05 22:53 | 20.97626 | -99.04575 | 29708 ft | 475 kts | 2° |
| 2026-05-05 22:54 | 21.00931 | -99.04406 | 29918 ft | 477 kts | 1° |
| 2026-05-05 22:54 | 21.04251 | -99.04236 | 30133 ft | 478 kts | 1° |
| 2026-05-05 22:54 | 21.07589 | -99.04066 | 30343 ft | 480 kts | 1° |
| 2026-05-05 22:54 | 21.10892 | -99.03898 | 30514 ft | 482 kts | 1° |
| 2026-05-05 22:55 | 21.14256 | -99.03728 | 30720 ft | 484 kts | 1° |
| 2026-05-05 22:55 | 21.17617 | -99.03555 | 30990 ft | 483 kts | 1° |
| 2026-05-05 22:55 | 21.20970 | -99.03382 | 31315 ft | 481 kts | 1° |
| 2026-05-05 22:55 | 21.24318 | -99.03210 | 31621 ft | 481 kts | 1° |
| 2026-05-05 22:56 | 21.27666 | -99.03038 | 31864 ft | 482 kts | 1° |
| 2026-05-05 22:56 | 21.31016 | -99.02866 | 32117 ft | 482 kts | 1° |
| 2026-05-05 22:56 | 21.34368 | -99.02693 | 32414 ft | 481 kts | 1° |
| 2026-05-05 22:56 | 21.37713 | -99.02521 | 32720 ft | 479 kts | 1° |
| 2026-05-05 22:57 | 21.41043 | -99.02350 | 32929 ft | 480 kts | 1° |
| 2026-05-05 22:57 | 21.44340 | -99.02181 | 33175 ft | 481 kts | 1° |
| 2026-05-05 22:57 | 21.47675 | -99.02010 | 33483 ft | 479 kts | 1° |
| 2026-05-05 22:57 | 21.51049 | -99.01837 | 33754 ft | 479 kts | 1° |
| 2026-05-05 22:58 | 21.54343 | -99.01668 | 33964 ft | 480 kts | 1° |
| 2026-05-05 22:58 | 21.57676 | -99.01498 | 34217 ft | 480 kts | 1° |
| 2026-05-05 22:58 | 21.61013 | -99.01327 | 34505 ft | 478 kts | 1° |
| 2026-05-05 22:58 | 21.64334 | -99.01156 | 34802 ft | 477 kts | 1° |
| 2026-05-05 22:59 | 21.67650 | -99.00985 | 35101 ft | 476 kts | 1° |
| 2026-05-05 22:59 | 21.70964 | -99.00815 | 35395 ft | 474 kts | 1° |
| 2026-05-05 22:59 | 21.74222 | -99.00646 | 35641 ft | 474 kts | 1° |
| 2026-05-05 22:59 | 21.77523 | -99.00476 | 35843 ft | 474 kts | 1° |
| 2026-05-05 23:00 | 21.84113 | -99.00134 | 36371 ft | 471 kts | 1° |
| 2026-05-05 23:00 | 21.87399 | -98.99964 | 36572 ft | 471 kts | 1° |
| 2026-05-05 23:00 | 21.90641 | -98.99797 | 36744 ft | 472 kts | 1° |
| 2026-05-05 23:01 | 21.93925 | -98.99628 | 37059 ft | 469 kts | 1° |
| 2026-05-05 23:01 | 21.97180 | -98.99458 | 37392 ft | 465 kts | 1° |
| 2026-05-05 23:01 | 22.00368 | -98.99293 | 37714 ft | 462 kts | 1° |
| 2026-05-05 23:01 | 22.03576 | -98.99125 | 37924 ft | 461 kts | 0° |
| 2026-05-05 23:02 | 22.10040 | -98.98793 | 37912 ft | 465 kts | 0° |
| 2026-05-05 23:02 | 22.16474 | -98.98459 | 37899 ft | 461 kts | 0° |
| 2026-05-05 23:03 | 22.22888 | -98.98125 | 37823 ft | 460 kts | 0° |
| 2026-05-05 23:03 | 22.29232 | -98.97796 | 37817 ft | 457 kts | 0° |
| 2026-05-05 23:04 | 22.35593 | -98.97466 | 37790 ft | 456 kts | 0° |
| 2026-05-05 23:04 | 22.41914 | -98.97138 | 37798 ft | 460 kts | 0° |
| 2026-05-05 23:05 | 22.48375 | -98.96803 | 37793 ft | 467 kts | 0° |
| 2026-05-05 23:05 | 22.54896 | -98.96463 | 37779 ft | 472 kts | 0° |
| 2026-05-05 23:06 | 22.61495 | -98.96119 | 37779 ft | 475 kts | 0° |
| 2026-05-05 23:06 | 22.68117 | -98.95773 | 37775 ft | 476 kts | 0° |
| 2026-05-05 23:07 | 22.74718 | -98.95427 | 37767 ft | 477 kts | 0° |
| 2026-05-05 23:07 | 22.81353 | -98.95079 | 37765 ft | 477 kts | 0° |
| 2026-05-05 23:08 | 22.87984 | -98.94732 | 37756 ft | 476 kts | 0° |
| 2026-05-05 23:08 | 22.94566 | -98.94387 | 37755 ft | 475 kts | 0° |
| 2026-05-05 23:09 | 23.01187 | -98.94038 | 37747 ft | 475 kts | 0° |
| 2026-05-05 23:09 | 23.07613 | -98.93701 | 37746 ft | 474 kts | 360° |
| 2026-05-05 23:10 | 23.14179 | -98.93355 | 37728 ft | 473 kts | 0° |
| 2026-05-05 23:10 | 23.20751 | -98.93008 | 37731 ft | 472 kts | 360° |
| 2026-05-05 23:11 | 23.27330 | -98.92662 | 37721 ft | 472 kts | 360° |
| 2026-05-05 23:11 | 23.33851 | -98.92435 | 37722 ft | 469 kts | 354° |
| 2026-05-05 23:12 | 23.40359 | -98.93001 | 37707 ft | 468 kts | 351° |
| 2026-05-05 23:12 | 23.46846 | -98.93697 | 37713 ft | 468 kts | 351° |
| 2026-05-05 23:13 | 23.53330 | -98.94325 | 37708 ft | 468 kts | 352° |
| 2026-05-05 23:13 | 23.59828 | -98.94917 | 37700 ft | 468 kts | 352° |
| 2026-05-05 23:14 | 23.66276 | -98.95503 | 37703 ft | 468 kts | 352° |
| 2026-05-05 23:14 | 23.72776 | -98.96160 | 37701 ft | 467 kts | 349° |
| 2026-05-05 23:15 | 23.79221 | -98.97150 | 37704 ft | 467 kts | 348° |
| 2026-05-05 23:15 | 23.85639 | -98.98226 | 37702 ft | 467 kts | 348° |
| 2026-05-05 23:16 | 23.92036 | -98.99269 | 37704 ft | 467 kts | 348° |
| 2026-05-05 23:16 | 23.98475 | -99.00294 | 37703 ft | 467 kts | 348° |
| 2026-05-05 23:17 | 24.04892 | -99.01307 | 37719 ft | 467 kts | 348° |
| 2026-05-05 23:17 | 24.11363 | -99.02328 | 37709 ft | 467 kts | 348° |
| 2026-05-05 23:18 | 24.17772 | -99.03344 | 37713 ft | 468 kts | 348° |
| 2026-05-05 23:18 | 24.24226 | -99.04367 | 37730 ft | 468 kts | 348° |
| 2026-05-05 23:19 | 24.30674 | -99.05390 | 37725 ft | 468 kts | 348° |
| 2026-05-05 23:19 | 24.37091 | -99.06409 | 37733 ft | 468 kts | 347° |
| 2026-05-05 23:20 | 24.43541 | -99.07434 | 37731 ft | 467 kts | 347° |
| 2026-05-05 23:20 | 24.49942 | -99.08452 | 37733 ft | 467 kts | 347° |
| 2026-05-05 23:21 | 24.56384 | -99.09478 | 37735 ft | 467 kts | 347° |
| 2026-05-05 23:21 | 24.62835 | -99.10507 | 37749 ft | 468 kts | 347° |
| 2026-05-05 23:22 | 24.69257 | -99.11533 | 37741 ft | 468 kts | 347° |
| 2026-05-05 23:22 | 24.75700 | -99.12562 | 37738 ft | 467 kts | 347° |
| 2026-05-05 23:23 | 24.82139 | -99.13594 | 37743 ft | 466 kts | 347° |
| 2026-05-05 23:23 | 24.88570 | -99.14623 | 37750 ft | 466 kts | 347° |
| 2026-05-05 23:24 | 24.94949 | -99.15645 | 37751 ft | 466 kts | 347° |
| 2026-05-05 23:24 | 25.01377 | -99.16676 | 37750 ft | 466 kts | 347° |
| 2026-05-05 23:25 | 25.07762 | -99.17703 | 37749 ft | 466 kts | 347° |
| 2026-05-05 23:25 | 25.14182 | -99.18736 | 37750 ft | 466 kts | 347° |
| 2026-05-05 23:26 | 25.20574 | -99.19764 | 37752 ft | 466 kts | 347° |
| 2026-05-05 23:26 | 25.26998 | -99.20800 | 37749 ft | 466 kts | 347° |
| 2026-05-05 23:27 | 25.33430 | -99.21838 | 37746 ft | 466 kts | 347° |
| 2026-05-05 23:27 | 25.39855 | -99.22874 | 37748 ft | 466 kts | 346° |
| 2026-05-05 23:28 | 25.46234 | -99.23906 | 37750 ft | 466 kts | 346° |
| 2026-05-05 23:28 | 25.52672 | -99.24948 | 37761 ft | 466 kts | 346° |
| 2026-05-05 23:29 | 25.59098 | -99.25989 | 37770 ft | 466 kts | 346° |
| 2026-05-05 23:29 | 25.65529 | -99.27033 | 37769 ft | 467 kts | 346° |
| 2026-05-05 23:30 | 25.70867 | -99.27897 | 37766 ft | 466 kts | 346° |
| 2026-05-05 23:30 | 25.77259 | -99.28935 | 37769 ft | 466 kts | 346° |
| 2026-05-05 23:31 | 25.83685 | -99.29980 | 37757 ft | 467 kts | 346° |
| 2026-05-05 23:31 | 25.90132 | -99.31033 | 37749 ft | 467 kts | 346° |
| 2026-05-05 23:32 | 25.96592 | -99.32087 | 37745 ft | 468 kts | 346° |
| 2026-05-05 23:32 | 26.02999 | -99.33133 | 37734 ft | 468 kts | 346° |
| 2026-05-05 23:33 | 26.09455 | -99.34189 | 37735 ft | 467 kts | 345° |
| 2026-05-05 23:33 | 26.15898 | -99.35243 | 37731 ft | 466 kts | 345° |
| 2026-05-05 23:34 | 26.22327 | -99.36296 | 37737 ft | 466 kts | 345° |
| 2026-05-05 23:34 | 26.28707 | -99.37343 | 37731 ft | 466 kts | 345° |
| 2026-05-05 23:35 | 26.35133 | -99.38399 | 37725 ft | 466 kts | 345° |
| 2026-05-05 23:35 | 26.41563 | -99.39462 | 37721 ft | 466 kts | 345° |
| 2026-05-05 23:36 | 26.47987 | -99.40526 | 37721 ft | 466 kts | 345° |
| 2026-05-05 23:36 | 26.54366 | -99.41581 | 37719 ft | 466 kts | 345° |
| 2026-05-05 23:37 | 26.60787 | -99.42648 | 37725 ft | 466 kts | 345° |
| 2026-05-05 23:37 | 26.67207 | -99.43713 | 37709 ft | 466 kts | 345° |
| 2026-05-05 23:38 | 26.73642 | -99.44780 | 37716 ft | 466 kts | 345° |
| 2026-05-05 23:38 | 26.80027 | -99.45840 | 37714 ft | 466 kts | 345° |
| 2026-05-05 23:39 | 26.86447 | -99.46907 | 37712 ft | 466 kts | 345° |
| 2026-05-05 23:39 | 26.92857 | -99.47974 | 37711 ft | 465 kts | 344° |
| 2026-05-05 23:40 | 26.99272 | -99.49044 | 37712 ft | 465 kts | 344° |
| 2026-05-05 23:40 | 27.05638 | -99.50106 | 37710 ft | 465 kts | 344° |
| 2026-05-05 23:41 | 27.12065 | -99.51182 | 37656 ft | 467 kts | 344° |
| 2026-05-05 23:41 | 27.18406 | -99.52236 | 37695 ft | 465 kts | 344° |
| 2026-05-05 23:42 | 27.24780 | -99.53298 | 37698 ft | 464 kts | 344° |
| 2026-05-05 23:42 | 27.31179 | -99.54368 | 37705 ft | 464 kts | 343° |
| 2026-05-05 23:43 | 27.37563 | -99.55437 | 37706 ft | 464 kts | 343° |
| 2026-05-05 23:43 | 27.43873 | -99.56808 | 37698 ft | 453 kts | 333° |
| 2026-05-05 23:44 | 27.46766 | -99.58120 | 37699 ft | 442 kts | 324° |
| 2026-05-05 23:44 | 27.49428 | -99.59755 | 37711 ft | 440 kts | 323° |
| 2026-05-05 23:44 | 27.54771 | -99.63119 | 37698 ft | 439 kts | 322° |
| 2026-05-05 23:45 | 27.60124 | -99.66475 | 37703 ft | 439 kts | 323° |
| 2026-05-05 23:45 | 27.65447 | -99.69781 | 37696 ft | 439 kts | 323° |
| 2026-05-05 23:46 | 27.70806 | -99.73095 | 37703 ft | 439 kts | 323° |
| 2026-05-05 23:46 | 27.76172 | -99.76415 | 37701 ft | 439 kts | 323° |
| 2026-05-05 23:47 | 27.81532 | -99.79736 | 37707 ft | 438 kts | 322° |
| 2026-05-05 23:47 | 27.86848 | -99.83032 | 37712 ft | 438 kts | 322° |
| 2026-05-05 23:48 | 27.92190 | -99.86350 | 37732 ft | 438 kts | 322° |
| 2026-05-05 23:48 | 27.97534 | -99.89673 | 37712 ft | 438 kts | 322° |
| 2026-05-05 23:49 | 28.02885 | -99.93004 | 37732 ft | 438 kts | 322° |
| 2026-05-05 23:49 | 28.08206 | -99.96320 | 37734 ft | 438 kts | 322° |
| 2026-05-05 23:50 | 28.13535 | -99.99645 | 37727 ft | 438 kts | 322° |
| 2026-05-05 23:50 | 28.18879 | -100.02983 | 37732 ft | 437 kts | 322° |
| 2026-05-05 23:51 | 28.24184 | -100.06301 | 37728 ft | 437 kts | 322° |
| 2026-05-05 23:51 | 28.29527 | -100.09646 | 37728 ft | 437 kts | 322° |
| 2026-05-05 23:52 | 28.34864 | -100.12991 | 37723 ft | 438 kts | 322° |
| 2026-05-05 23:52 | 28.40198 | -100.16338 | 37734 ft | 438 kts | 322° |
| 2026-05-05 23:53 | 28.45497 | -100.19667 | 37729 ft | 438 kts | 322° |
| 2026-05-05 23:53 | 28.50839 | -100.23027 | 37726 ft | 438 kts | 322° |
| 2026-05-05 23:54 | 28.56147 | -100.26370 | 37733 ft | 438 kts | 322° |
| 2026-05-05 23:54 | 28.61477 | -100.29730 | 37736 ft | 437 kts | 321° |
| 2026-05-05 23:55 | 28.66813 | -100.33098 | 37737 ft | 437 kts | 321° |
| 2026-05-05 23:55 | 28.72102 | -100.36440 | 37745 ft | 437 kts | 321° |
| 2026-05-05 23:56 | 28.77424 | -100.39808 | 37742 ft | 437 kts | 321° |
| 2026-05-05 23:56 | 28.82717 | -100.43160 | 37737 ft | 437 kts | 321° |
| 2026-05-05 23:57 | 28.88049 | -100.46540 | 37745 ft | 438 kts | 321° |
| 2026-05-05 23:57 | 28.93380 | -100.49924 | 37736 ft | 438 kts | 321° |
| 2026-05-05 23:58 | 28.98676 | -100.53294 | 37736 ft | 438 kts | 321° |
| 2026-05-05 23:58 | 29.04002 | -100.56683 | 37738 ft | 437 kts | 321° |
| 2026-05-05 23:59 | 29.09326 | -100.60076 | 37736 ft | 437 kts | 320° |
| 2026-05-05 23:59 | 29.14641 | -100.63465 | 37743 ft | 437 kts | 320° |
| 2026-05-06 00:00 | 29.19926 | -100.66841 | 37747 ft | 437 kts | 320° |
| 2026-05-06 00:00 | 29.25251 | -100.70248 | 37741 ft | 437 kts | 320° |
| 2026-05-06 00:01 | 29.30564 | -100.73649 | 37734 ft | 437 kts | 320° |
| 2026-05-06 00:01 | 29.35828 | -100.77066 | 37726 ft | 433 kts | 317° |
| 2026-05-06 00:02 | 29.40506 | -100.81246 | 37739 ft | 422 kts | 310° |
| 2026-05-06 00:02 | 29.44984 | -100.85575 | 37730 ft | 424 kts | 309° |
| 2026-05-06 00:03 | 29.49518 | -100.89943 | 37747 ft | 425 kts | 309° |
| 2026-05-06 00:03 | 29.54079 | -100.94308 | 37744 ft | 426 kts | 309° |
| 2026-05-06 00:04 | 29.58619 | -100.98648 | 37760 ft | 426 kts | 309° |
| 2026-05-06 00:04 | 29.63180 | -101.03006 | 37763 ft | 426 kts | 309° |
| 2026-05-06 00:05 | 29.70009 | -101.09540 | 37771 ft | 426 kts | 309° |
| 2026-05-06 00:06 | 29.74577 | -101.13921 | 37781 ft | 426 kts | 309° |
| 2026-05-06 00:06 | 29.79143 | -101.18305 | 37781 ft | 427 kts | 309° |
| 2026-05-06 00:07 | 29.83675 | -101.22664 | 37783 ft | 427 kts | 309° |
| 2026-05-06 00:07 | 29.88233 | -101.27049 | 37781 ft | 427 kts | 309° |
| 2026-05-06 00:08 | 29.92794 | -101.31442 | 37791 ft | 427 kts | 309° |
| 2026-05-06 00:08 | 29.97352 | -101.35840 | 37796 ft | 427 kts | 309° |
| 2026-05-06 00:09 | 30.01907 | -101.40242 | 37794 ft | 426 kts | 308° |
| 2026-05-06 00:09 | 30.06416 | -101.44602 | 37804 ft | 425 kts | 308° |
| 2026-05-06 00:10 | 30.10966 | -101.49009 | 37817 ft | 425 kts | 308° |
| 2026-05-06 00:10 | 30.15503 | -101.53408 | 37816 ft | 425 kts | 308° |
| 2026-05-06 00:11 | 30.20008 | -101.57780 | 37816 ft | 425 kts | 308° |
| 2026-05-06 00:11 | 30.24535 | -101.62182 | 37826 ft | 426 kts | 308° |
| 2026-05-06 00:12 | 30.29093 | -101.66620 | 37820 ft | 426 kts | 308° |
| 2026-05-06 00:12 | 30.33597 | -101.71011 | 37817 ft | 427 kts | 308° |
| 2026-05-06 00:13 | 30.38142 | -101.75442 | 37820 ft | 426 kts | 308° |
| 2026-05-06 00:13 | 30.42671 | -101.79862 | 37829 ft | 426 kts | 308° |
| 2026-05-06 00:14 | 30.47212 | -101.84305 | 37815 ft | 426 kts | 308° |
| 2026-05-06 00:14 | 30.51731 | -101.88731 | 37817 ft | 425 kts | 308° |
| 2026-05-06 00:15 | 30.56228 | -101.93140 | 37821 ft | 425 kts | 308° |
| 2026-05-06 00:15 | 30.60743 | -101.97573 | 37828 ft | 424 kts | 308° |
| 2026-05-06 00:16 | 30.64482 | -102.01248 | 37844 ft | 423 kts | 307° |
| 2026-05-06 00:16 | 30.68980 | -102.05676 | 37848 ft | 423 kts | 307° |
| 2026-05-06 00:17 | 30.73454 | -102.10085 | 37851 ft | 424 kts | 307° |
| 2026-05-06 00:17 | 30.77964 | -102.14539 | 37853 ft | 425 kts | 307° |
| 2026-05-06 00:18 | 30.82479 | -102.18998 | 37864 ft | 426 kts | 307° |
| 2026-05-06 00:18 | 30.86975 | -102.23445 | 37857 ft | 426 kts | 307° |
| 2026-05-06 00:19 | 30.91501 | -102.27924 | 37877 ft | 425 kts | 307° |
| 2026-05-06 00:19 | 30.95991 | -102.32375 | 37868 ft | 425 kts | 307° |
| 2026-05-06 00:20 | 31.00497 | -102.36849 | 37871 ft | 425 kts | 307° |
| 2026-05-06 00:20 | 31.05001 | -102.41327 | 37862 ft | 424 kts | 306° |
| 2026-05-06 00:21 | 31.09458 | -102.45765 | 37872 ft | 423 kts | 306° |
| 2026-05-06 00:21 | 31.13938 | -102.50229 | 37871 ft | 423 kts | 306° |
| 2026-05-06 00:22 | 31.18412 | -102.54696 | 37862 ft | 422 kts | 306° |
| 2026-05-06 00:22 | 31.22888 | -102.59170 | 37872 ft | 422 kts | 306° |
| 2026-05-06 00:23 | 31.27316 | -102.63600 | 37882 ft | 421 kts | 306° |
| 2026-05-06 00:23 | 31.31772 | -102.68067 | 37868 ft | 422 kts | 306° |
| 2026-05-06 00:24 | 31.36214 | -102.72522 | 37872 ft | 422 kts | 306° |
| 2026-05-06 00:24 | 31.40673 | -102.77004 | 37870 ft | 423 kts | 306° |
| 2026-05-06 00:25 | 31.45115 | -102.81469 | 37873 ft | 422 kts | 306° |
| 2026-05-06 00:25 | 31.49580 | -102.85965 | 37859 ft | 422 kts | 306° |
| 2026-05-06 00:26 | 31.54014 | -102.90435 | 37860 ft | 421 kts | 306° |
| 2026-05-06 00:26 | 31.58459 | -102.94924 | 37862 ft | 421 kts | 305° |
| 2026-05-06 00:27 | 31.62906 | -102.99421 | 37860 ft | 421 kts | 305° |
| 2026-05-06 00:27 | 31.67326 | -103.03896 | 37862 ft | 422 kts | 305° |
| 2026-05-06 00:28 | 31.71774 | -103.08406 | 37862 ft | 422 kts | 305° |
| 2026-05-06 00:28 | 31.76195 | -103.12895 | 37869 ft | 422 kts | 305° |
| 2026-05-06 00:29 | 31.80644 | -103.17417 | 37867 ft | 422 kts | 305° |
| 2026-05-06 00:29 | 31.85091 | -103.21942 | 37876 ft | 423 kts | 305° |
| 2026-05-06 00:30 | 31.89562 | -103.26426 | 37870 ft | 427 kts | 307° |
| 2026-05-06 00:30 | 31.94261 | -103.30759 | 37871 ft | 429 kts | 308° |
| 2026-05-06 00:31 | 31.98992 | -103.35051 | 37879 ft | 429 kts | 308° |
| 2026-05-06 00:31 | 32.03678 | -103.39350 | 37868 ft | 428 kts | 307° |
| 2026-05-06 00:32 | 32.08356 | -103.43675 | 37886 ft | 427 kts | 307° |
| 2026-05-06 00:32 | 32.13023 | -103.48006 | 37871 ft | 426 kts | 307° |
| 2026-05-06 00:33 | 32.17694 | -103.52352 | 37875 ft | 426 kts | 307° |
| 2026-05-06 00:33 | 32.22319 | -103.56656 | 37886 ft | 426 kts | 307° |
| 2026-05-06 00:34 | 32.26978 | -103.60999 | 37893 ft | 426 kts | 307° |
| 2026-05-06 00:34 | 32.31615 | -103.65326 | 37894 ft | 427 kts | 307° |
| 2026-05-06 00:35 | 32.36279 | -103.69684 | 37889 ft | 427 kts | 307° |
| 2026-05-06 00:35 | 32.40940 | -103.74047 | 37890 ft | 427 kts | 307° |
| 2026-05-06 00:36 | 32.45601 | -103.78414 | 37886 ft | 428 kts | 307° |
| 2026-05-06 00:36 | 32.50254 | -103.82777 | 37892 ft | 428 kts | 307° |
| 2026-05-06 00:37 | 32.54927 | -103.87165 | 37884 ft | 427 kts | 307° |
| 2026-05-06 00:37 | 32.59569 | -103.91532 | 37892 ft | 427 kts | 306° |
| 2026-05-06 00:38 | 32.64227 | -103.95922 | 37889 ft | 427 kts | 306° |
| 2026-05-06 00:38 | 32.68876 | -104.00308 | 37893 ft | 427 kts | 306° |
| 2026-05-06 00:39 | 32.73525 | -104.04700 | 37893 ft | 427 kts | 306° |
| 2026-05-06 00:39 | 32.78150 | -104.09072 | 37902 ft | 427 kts | 306° |
| 2026-05-06 00:40 | 32.82811 | -104.13489 | 37900 ft | 427 kts | 306° |
| 2026-05-06 00:40 | 32.87430 | -104.17869 | 37899 ft | 427 kts | 306° |
| 2026-05-06 00:41 | 32.92074 | -104.22280 | 37893 ft | 426 kts | 306° |
| 2026-05-06 00:41 | 32.96717 | -104.26696 | 37887 ft | 426 kts | 306° |
| 2026-05-06 00:42 | 33.01321 | -104.31080 | 37892 ft | 425 kts | 306° |
| 2026-05-06 00:42 | 33.05937 | -104.35483 | 37888 ft | 425 kts | 306° |
| 2026-05-06 00:43 | 33.10560 | -104.39898 | 37883 ft | 424 kts | 306° |
| 2026-05-06 00:43 | 33.15173 | -104.44313 | 37868 ft | 424 kts | 306° |
| 2026-05-06 00:44 | 33.19746 | -104.48693 | 37862 ft | 424 kts | 306° |
| 2026-05-06 00:44 | 33.24353 | -104.53111 | 37856 ft | 424 kts | 306° |
| 2026-05-06 00:45 | 33.28930 | -104.57509 | 37852 ft | 423 kts | 306° |
| 2026-05-06 00:45 | 33.33525 | -104.61928 | 37849 ft | 422 kts | 306° |
| 2026-05-06 00:46 | 33.38029 | -104.66400 | 37855 ft | 420 kts | 304° |
| 2026-05-06 00:46 | 33.42480 | -104.70916 | 37862 ft | 420 kts | 304° |
| 2026-05-06 00:47 | 33.46929 | -104.75421 | 37868 ft | 421 kts | 304° |
| 2026-05-06 00:47 | 33.51418 | -104.79955 | 37881 ft | 422 kts | 304° |
| 2026-05-06 00:48 | 33.55918 | -104.84504 | 37894 ft | 422 kts | 304° |
| 2026-05-06 00:48 | 33.60399 | -104.89056 | 37909 ft | 422 kts | 304° |
| 2026-05-06 00:49 | 33.64858 | -104.93607 | 37913 ft | 423 kts | 304° |
| 2026-05-06 00:49 | 33.69351 | -104.98199 | 37930 ft | 423 kts | 304° |
| 2026-05-06 00:50 | 33.73811 | -105.02765 | 37935 ft | 423 kts | 304° |
| 2026-05-06 00:50 | 33.78299 | -105.07361 | 37945 ft | 423 kts | 304° |
| 2026-05-06 00:51 | 33.82787 | -105.11964 | 37943 ft | 423 kts | 304° |
| 2026-05-06 00:51 | 33.87249 | -105.16548 | 37958 ft | 424 kts | 304° |
| 2026-05-06 00:52 | 33.91745 | -105.21173 | 37953 ft | 424 kts | 304° |
| 2026-05-06 00:52 | 33.96212 | -105.25776 | 37958 ft | 424 kts | 304° |
| 2026-05-06 00:53 | 34.00701 | -105.30409 | 37950 ft | 425 kts | 303° |
| 2026-05-06 00:53 | 34.05204 | -105.35061 | 37960 ft | 425 kts | 304° |
| 2026-05-06 00:54 | 34.09666 | -105.39679 | 37965 ft | 425 kts | 303° |
| 2026-05-06 00:54 | 34.14173 | -105.44349 | 37953 ft | 426 kts | 303° |
| 2026-05-06 00:55 | 34.18649 | -105.48996 | 37947 ft | 427 kts | 303° |
| 2026-05-06 00:55 | 34.23162 | -105.53685 | 37940 ft | 427 kts | 303° |
| 2026-05-06 00:56 | 34.27661 | -105.58367 | 37940 ft | 426 kts | 303° |
| 2026-05-06 00:56 | 34.32162 | -105.63059 | 37949 ft | 426 kts | 303° |
| 2026-05-06 00:57 | 34.36629 | -105.67722 | 37953 ft | 426 kts | 303° |
| 2026-05-06 00:57 | 34.41222 | -105.72324 | 37964 ft | 429 kts | 305° |
| 2026-05-06 00:58 | 34.45871 | -105.76828 | 37951 ft | 430 kts | 306° |
| 2026-05-06 00:58 | 34.50538 | -105.81365 | 37957 ft | 429 kts | 306° |
| 2026-05-06 00:59 | 34.55201 | -105.85932 | 37970 ft | 430 kts | 305° |
| 2026-05-06 00:59 | 34.59820 | -105.90474 | 37968 ft | 429 kts | 305° |
| 2026-05-06 01:00 | 34.64455 | -105.95040 | 37968 ft | 429 kts | 305° |
| 2026-05-06 01:00 | 34.69099 | -105.99625 | 37958 ft | 429 kts | 305° |
| 2026-05-06 01:01 | 34.73737 | -106.04211 | 37959 ft | 429 kts | 305° |
| 2026-05-06 01:01 | 34.78346 | -106.08775 | 37956 ft | 429 kts | 305° |
| 2026-05-06 01:02 | 34.82985 | -106.13373 | 37957 ft | 429 kts | 305° |
| 2026-05-06 01:02 | 34.87307 | -106.17664 | 37956 ft | 429 kts | 305° |
| 2026-05-06 01:03 | 34.91914 | -106.22244 | 37955 ft | 429 kts | 305° |
| 2026-05-06 01:03 | 34.96550 | -106.26867 | 37957 ft | 429 kts | 305° |
| 2026-05-06 01:04 | 35.01148 | -106.31453 | 37954 ft | 430 kts | 305° |
| 2026-05-06 01:04 | 35.05004 | -106.35301 | 37955 ft | 430 kts | 306° |
| 2026-05-06 01:05 | 35.09649 | -106.39946 | 37940 ft | 431 kts | 306° |
| 2026-05-06 01:05 | 35.14290 | -106.44593 | 37937 ft | 430 kts | 306° |
| 2026-05-06 01:06 | 35.18903 | -106.49218 | 37932 ft | 430 kts | 306° |
| 2026-05-06 01:06 | 35.23538 | -106.53873 | 37923 ft | 431 kts | 306° |
| 2026-05-06 01:07 | 35.28143 | -106.58505 | 37922 ft | 430 kts | 306° |
| 2026-05-06 01:07 | 35.32766 | -106.63162 | 37930 ft | 429 kts | 306° |
| 2026-05-06 01:08 | 35.37370 | -106.67808 | 37936 ft | 428 kts | 306° |
| 2026-05-06 01:08 | 35.41946 | -106.72432 | 37937 ft | 427 kts | 306° |
| 2026-05-06 01:09 | 35.46533 | -106.77077 | 37950 ft | 427 kts | 305° |
| 2026-05-06 01:09 | 35.51122 | -106.81731 | 37942 ft | 428 kts | 306° |
| 2026-05-06 01:10 | 35.55679 | -106.86357 | 37960 ft | 428 kts | 306° |
| 2026-05-06 01:10 | 35.60286 | -106.91043 | 37954 ft | 429 kts | 306° |
| 2026-05-06 01:11 | 35.64862 | -106.95703 | 37951 ft | 428 kts | 305° |
| 2026-05-06 01:11 | 35.69450 | -107.00382 | 37977 ft | 428 kts | 306° |
| 2026-05-06 01:12 | 35.74058 | -107.05090 | 37969 ft | 429 kts | 305° |
| 2026-05-06 01:12 | 35.78629 | -107.09768 | 37968 ft | 429 kts | 305° |
| 2026-05-06 01:13 | 35.83230 | -107.14483 | 37958 ft | 429 kts | 305° |
| 2026-05-06 01:13 | 35.87824 | -107.19198 | 37953 ft | 429 kts | 306° |
| 2026-05-06 01:14 | 35.94696 | -107.26264 | 37953 ft | 430 kts | 306° |
| 2026-05-06 01:14 | 35.99287 | -107.30994 | 37958 ft | 430 kts | 306° |
| 2026-05-06 01:15 | 36.03881 | -107.35743 | 37939 ft | 430 kts | 306° |
| 2026-05-06 01:15 | 36.08459 | -107.40469 | 37936 ft | 430 kts | 306° |
| 2026-05-06 01:16 | 36.13059 | -107.45231 | 37940 ft | 431 kts | 306° |
| 2026-05-06 01:16 | 36.17657 | -107.50000 | 37946 ft | 430 kts | 306° |
| 2026-05-06 01:17 | 36.22227 | -107.54747 | 37938 ft | 431 kts | 306° |
| 2026-05-06 01:17 | 36.26818 | -107.59522 | 37941 ft | 431 kts | 306° |
| 2026-05-06 01:18 | 36.31422 | -107.64320 | 37934 ft | 432 kts | 306° |
| 2026-05-06 01:18 | 36.36035 | -107.69136 | 37929 ft | 433 kts | 306° |
| 2026-05-06 01:19 | 36.40623 | -107.73931 | 37920 ft | 433 kts | 306° |
| 2026-05-06 01:19 | 36.45236 | -107.78758 | 37916 ft | 433 kts | 306° |
| 2026-05-06 01:20 | 36.49848 | -107.83594 | 37907 ft | 432 kts | 306° |
| 2026-05-06 01:20 | 36.54415 | -107.88391 | 37906 ft | 432 kts | 306° |
| 2026-05-06 01:21 | 36.59002 | -107.93217 | 37899 ft | 431 kts | 306° |
| 2026-05-06 01:21 | 36.63590 | -107.98051 | 37895 ft | 431 kts | 306° |
| 2026-05-06 01:22 | 36.68138 | -108.02852 | 37900 ft | 431 kts | 307° |
| 2026-05-06 01:22 | 36.72723 | -108.07700 | 37897 ft | 433 kts | 307° |
| 2026-05-06 01:23 | 36.75145 | -108.09997 | 37887 ft | 445 kts | 314° |
| 2026-05-06 01:23 | 36.77902 | -108.11910 | 37889 ft | 458 kts | 322° |
| 2026-05-06 01:23 | 36.83705 | -108.15325 | 37892 ft | 462 kts | 323° |
| 2026-05-06 01:24 | 36.89517 | -108.18678 | 37888 ft | 462 kts | 323° |
| 2026-05-06 01:24 | 36.95347 | -108.22094 | 37892 ft | 462 kts | 323° |
| 2026-05-06 01:25 | 37.01149 | -108.25540 | 37891 ft | 463 kts | 323° |
| 2026-05-06 01:25 | 37.06979 | -108.29020 | 37884 ft | 463 kts | 324° |
| 2026-05-06 01:26 | 37.12770 | -108.32484 | 37893 ft | 463 kts | 324° |
| 2026-05-06 01:26 | 37.18587 | -108.35967 | 37876 ft | 463 kts | 324° |
| 2026-05-06 01:27 | 37.24411 | -108.39461 | 37870 ft | 463 kts | 324° |
| 2026-05-06 01:27 | 37.30200 | -108.42939 | 37854 ft | 463 kts | 325° |
| 2026-05-06 01:28 | 37.36021 | -108.46441 | 37860 ft | 462 kts | 325° |
| 2026-05-06 01:28 | 37.41777 | -108.49920 | 37874 ft | 461 kts | 325° |
| 2026-05-06 01:29 | 37.47582 | -108.53420 | 37862 ft | 461 kts | 325° |
| 2026-05-06 01:29 | 37.53336 | -108.56897 | 37882 ft | 461 kts | 325° |
| 2026-05-06 01:30 | 37.59117 | -108.60400 | 37869 ft | 461 kts | 325° |
| 2026-05-06 01:30 | 37.64903 | -108.63914 | 37887 ft | 461 kts | 325° |
| 2026-05-06 01:31 | 37.70675 | -108.67425 | 37880 ft | 461 kts | 326° |
| 2026-05-06 01:31 | 37.76458 | -108.70947 | 37891 ft | 460 kts | 326° |
| 2026-05-06 01:32 | 37.82231 | -108.74470 | 37894 ft | 461 kts | 326° |
| 2026-05-06 01:32 | 37.88009 | -108.78001 | 37894 ft | 460 kts | 326° |
| 2026-05-06 01:33 | 37.93787 | -108.81538 | 37911 ft | 461 kts | 326° |
| 2026-05-06 01:33 | 37.99520 | -108.85056 | 37896 ft | 460 kts | 326° |
| 2026-05-06 01:34 | 38.05283 | -108.88600 | 37884 ft | 459 kts | 328° |
| 2026-05-06 01:34 | 38.11026 | -108.92135 | 37879 ft | 458 kts | 328° |
| 2026-05-06 01:35 | 38.16738 | -108.95657 | 37884 ft | 457 kts | 328° |
| 2026-05-06 01:35 | 38.22468 | -108.99195 | 37884 ft | 457 kts | 328° |
| 2026-05-06 01:36 | 38.28173 | -109.02725 | 37877 ft | 456 kts | 328° |
| 2026-05-06 01:36 | 38.33890 | -109.06268 | 37862 ft | 456 kts | 328° |
| 2026-05-06 01:37 | 38.39593 | -109.09811 | 37875 ft | 456 kts | 328° |
| 2026-05-06 01:37 | 38.45262 | -109.13338 | 37867 ft | 455 kts | 328° |
| 2026-05-06 01:38 | 38.50964 | -109.16890 | 37870 ft | 455 kts | 328° |
| 2026-05-06 01:38 | 38.56659 | -109.20446 | 37862 ft | 455 kts | 329° |
| 2026-05-06 01:39 | 38.62325 | -109.23989 | 37858 ft | 456 kts | 329° |
| 2026-05-06 01:39 | 38.68024 | -109.27561 | 37848 ft | 455 kts | 329° |
| 2026-05-06 01:40 | 38.73720 | -109.31137 | 37846 ft | 456 kts | 329° |
| 2026-05-06 01:40 | 38.79426 | -109.34728 | 37820 ft | 455 kts | 329° |
| 2026-05-06 01:41 | 38.85082 | -109.38288 | 37826 ft | 454 kts | 329° |
| 2026-05-06 01:41 | 38.90769 | -109.41877 | 37822 ft | 454 kts | 329° |
| 2026-05-06 01:42 | 38.96435 | -109.45457 | 37827 ft | 453 kts | 329° |
| 2026-05-06 01:42 | 39.02043 | -109.49006 | 37834 ft | 452 kts | 330° |
| 2026-05-06 01:43 | 39.07689 | -109.52592 | 37835 ft | 450 kts | 330° |
| 2026-05-06 01:43 | 39.13319 | -109.56171 | 37850 ft | 451 kts | 330° |
| 2026-05-06 01:44 | 39.18911 | -109.59730 | 37843 ft | 450 kts | 330° |
| 2026-05-06 01:44 | 39.24542 | -109.63326 | 37853 ft | 450 kts | 330° |
| 2026-05-06 01:45 | 39.30155 | -109.66910 | 37855 ft | 450 kts | 330° |
| 2026-05-06 01:45 | 39.35724 | -109.70474 | 37883 ft | 449 kts | 331° |
| 2026-05-06 01:46 | 39.41289 | -109.74118 | 37882 ft | 445 kts | 326° |
| 2026-05-06 01:46 | 39.43749 | -109.76535 | 37893 ft | 442 kts | 315° |
| 2026-05-06 01:46 | 39.45836 | -109.79442 | 37860 ft | 440 kts | 306° |
| 2026-05-06 01:47 | 39.48831 | -109.86264 | 37848 ft | 438 kts | 295° |
| 2026-05-06 01:47 | 39.51512 | -109.93365 | 37850 ft | 438 kts | 296° |
| 2026-05-06 01:48 | 39.54235 | -110.00415 | 37855 ft | 437 kts | 296° |
| 2026-05-06 01:48 | 39.56520 | -110.06266 | 37858 ft | 439 kts | 297° |
| 2026-05-06 01:49 | 39.59720 | -110.14482 | 37867 ft | 438 kts | 297° |
| 2026-05-06 01:49 | 39.62012 | -110.20371 | 37871 ft | 437 kts | 297° |
| 2026-05-06 01:50 | 39.64735 | -110.27392 | 37886 ft | 432 kts | 297° |
| 2026-05-06 01:50 | 39.67422 | -110.34339 | 37569 ft | 436 kts | 297° |
| 2026-05-06 01:51 | 39.69006 | -110.38444 | 36939 ft | 434 kts | 297° |
| 2026-05-06 01:51 | 39.70359 | -110.41957 | 36323 ft | 433 kts | 298° |
| 2026-05-06 01:51 | 39.71706 | -110.45454 | 35649 ft | 433 kts | 298° |
| 2026-05-06 01:51 | 39.73057 | -110.48963 | 34918 ft | 434 kts | 299° |
| 2026-05-06 01:52 | 39.74391 | -110.52434 | 34260 ft | 435 kts | 300° |
| 2026-05-06 01:52 | 39.75739 | -110.55947 | 33763 ft | 430 kts | 300° |
| 2026-05-06 01:52 | 39.77071 | -110.59423 | 33275 ft | 425 kts | 300° |
| 2026-05-06 01:52 | 39.78381 | -110.62850 | 32781 ft | 421 kts | 300° |
| 2026-05-06 01:53 | 39.79662 | -110.66202 | 32287 ft | 417 kts | 300° |
| 2026-05-06 01:53 | 39.80947 | -110.69568 | 31791 ft | 413 kts | 300° |
| 2026-05-06 01:53 | 39.82220 | -110.72901 | 31326 ft | 409 kts | 301° |
| 2026-05-06 01:53 | 39.83482 | -110.76207 | 30843 ft | 406 kts | 301° |
| 2026-05-06 01:54 | 39.84734 | -110.79493 | 30368 ft | 403 kts | 301° |
| 2026-05-06 01:54 | 39.85974 | -110.82750 | 29896 ft | 400 kts | 301° |
| 2026-05-06 01:54 | 39.87205 | -110.85987 | 29426 ft | 397 kts | 300° |
| 2026-05-06 01:54 | 39.88414 | -110.89173 | 28949 ft | 396 kts | 300° |
| 2026-05-06 01:55 | 39.89630 | -110.92381 | 28457 ft | 395 kts | 300° |
| 2026-05-06 01:55 | 39.90846 | -110.95593 | 27966 ft | 393 kts | 299° |
| 2026-05-06 01:55 | 39.92055 | -110.98784 | 27466 ft | 391 kts | 299° |
| 2026-05-06 01:55 | 39.93237 | -111.01911 | 27004 ft | 389 kts | 298° |
| 2026-05-06 01:56 | 39.94431 | -111.05074 | 26527 ft | 387 kts | 298° |
| 2026-05-06 01:56 | 39.95618 | -111.08222 | 26043 ft | 385 kts | 298° |
| 2026-05-06 01:56 | 39.96794 | -111.11345 | 25571 ft | 382 kts | 298° |
| 2026-05-06 01:56 | 39.97965 | -111.14460 | 25100 ft | 380 kts | 297° |
| 2026-05-06 01:57 | 39.99128 | -111.17553 | 24623 ft | 378 kts | 297° |
| 2026-05-06 01:57 | 40.00267 | -111.20585 | 24163 ft | 376 kts | 296° |
| 2026-05-06 01:57 | 40.01045 | -111.22658 | 23844 ft | 375 kts | 296° |
| 2026-05-06 01:57 | 40.02279 | -111.25945 | 23353 ft | 374 kts | 297° |
| 2026-05-06 01:58 | 40.03432 | -111.29005 | 22878 ft | 376 kts | 297° |
| 2026-05-06 01:58 | 40.04586 | -111.32075 | 22415 ft | 377 kts | 297° |
| 2026-05-06 01:58 | 40.05727 | -111.35124 | 21926 ft | 369 kts | 297° |
| 2026-05-06 01:58 | 40.06844 | -111.38119 | 21471 ft | 361 kts | 297° |
| 2026-05-06 01:59 | 40.07925 | -111.41018 | 21027 ft | 355 kts | 297° |
| 2026-05-06 01:59 | 40.09002 | -111.43885 | 20592 ft | 348 kts | 297° |
| 2026-05-06 01:59 | 40.09951 | -111.46508 | 20144 ft | 344 kts | 297° |
| 2026-05-06 01:59 | 40.10983 | -111.49284 | 19755 ft | 334 kts | 297° |
| 2026-05-06 02:00 | 40.12002 | -111.52007 | 19309 ft | 332 kts | 297° |
| 2026-05-06 02:00 | 40.12977 | -111.54648 | 18923 ft | 322 kts | 297° |
| 2026-05-06 02:00 | 40.13941 | -111.57261 | 18783 ft | 308 kts | 297° |
| 2026-05-06 02:00 | 40.14871 | -111.59773 | 18675 ft | 318 kts | 297° |
| 2026-05-06 02:01 | 40.15868 | -111.62463 | 18547 ft | 337 kts | 297° |
| 2026-05-06 02:01 | 40.16897 | -111.65249 | 18397 ft | 342 kts | 297° |
| 2026-05-06 02:01 | 40.17933 | -111.68056 | 18239 ft | 342 kts | 297° |
| 2026-05-06 02:01 | 40.18966 | -111.70858 | 18088 ft | 341 kts | 297° |
| 2026-05-06 02:02 | 40.19997 | -111.73654 | 17941 ft | 340 kts | 297° |
| 2026-05-06 02:02 | 40.21012 | -111.76410 | 17801 ft | 339 kts | 297° |
| 2026-05-06 02:02 | 40.22037 | -111.79195 | 17654 ft | 339 kts | 297° |
| 2026-05-06 02:02 | 40.23059 | -111.81976 | 17521 ft | 338 kts | 297° |
| 2026-05-06 02:03 | 40.24079 | -111.84750 | 17384 ft | 338 kts | 297° |
| 2026-05-06 02:03 | 40.25090 | -111.87508 | 17320 ft | 335 kts | 297° |
| 2026-05-06 02:03 | 40.26104 | -111.90270 | 17195 ft | 335 kts | 298° |
| 2026-05-06 02:03 | 40.27334 | -111.92810 | 17043 ft | 334 kts | 310° |
| 2026-05-06 02:04 | 40.28856 | -111.94888 | 16836 ft | 335 kts | 320° |
| 2026-05-06 02:04 | 40.30772 | -111.96643 | 16562 ft | 335 kts | 329° |
| 2026-05-06 02:04 | 40.32787 | -111.98136 | 16269 ft | 330 kts | 331° |
| 2026-05-06 02:04 | 40.34795 | -111.99601 | 15991 ft | 327 kts | 330° |
| 2026-05-06 02:05 | 40.36772 | -112.01069 | 15720 ft | 327 kts | 330° |
| 2026-05-06 02:05 | 40.38719 | -112.02534 | 15443 ft | 326 kts | 330° |
| 2026-05-06 02:05 | 40.40697 | -112.03969 | 15170 ft | 324 kts | 335° |
| 2026-05-06 02:05 | 40.42820 | -112.04980 | 14865 ft | 324 kts | 345° |
| 2026-05-06 02:06 | 40.45033 | -112.05462 | 14557 ft | 322 kts | 353° |
| 2026-05-06 02:06 | 40.47265 | -112.05750 | 14259 ft | 321 kts | 353° |
| 2026-05-06 02:06 | 40.49489 | -112.06016 | 13933 ft | 320 kts | 353° |
| 2026-05-06 02:06 | 40.51677 | -112.06284 | 13620 ft | 317 kts | 353° |
| 2026-05-06 02:07 | 40.53156 | -112.06470 | 13412 ft | 316 kts | 353° |
| 2026-05-06 02:07 | 40.54181 | -112.06601 | 13267 ft | 316 kts | 353° |
| 2026-05-06 02:07 | 40.56381 | -112.06887 | 12962 ft | 315 kts | 353° |
| 2026-05-06 02:07 | 40.58560 | -112.07176 | 12657 ft | 313 kts | 353° |
| 2026-05-06 02:08 | 40.60700 | -112.07462 | 12361 ft | 312 kts | 353° |
| 2026-05-06 02:08 | 40.62859 | -112.07751 | 12060 ft | 311 kts | 353° |
| 2026-05-06 02:08 | 40.65002 | -112.08019 | 11930 ft | 306 kts | 354° |
| 2026-05-06 02:08 | 40.67130 | -112.08262 | 11807 ft | 308 kts | 354° |
| 2026-05-06 02:09 | 40.69290 | -112.08508 | 11688 ft | 312 kts | 354° |
| 2026-05-06 02:09 | 40.71453 | -112.08759 | 11572 ft | 311 kts | 354° |
| 2026-05-06 02:09 | 40.73596 | -112.09001 | 11443 ft | 305 kts | 354° |
| 2026-05-06 02:09 | 40.75614 | -112.09237 | 11469 ft | 280 kts | 353° |
| 2026-05-06 02:10 | 40.77468 | -112.09457 | 11396 ft | 257 kts | 353° |
| 2026-05-06 02:10 | 40.79184 | -112.09664 | 11277 ft | 235 kts | 353° |
| 2026-05-06 02:10 | 40.80236 | -112.09788 | 11178 ft | 224 kts | 353° |
| 2026-05-06 02:10 | 40.82203 | -112.10016 | 11002 ft | 200 kts | 353° |
| 2026-05-06 02:11 | 40.83571 | -112.10182 | 10828 ft | 202 kts | 353° |
| 2026-05-06 02:11 | 40.84976 | -112.10352 | 10560 ft | 203 kts | 353° |
| 2026-05-06 02:11 | 40.85927 | -112.10465 | 10388 ft | 202 kts | 353° |
| 2026-05-06 02:11 | 40.87280 | -112.10626 | 10121 ft | 193 kts | 353° |
| 2026-05-06 02:12 | 40.88590 | -112.10782 | 9855 ft | 185 kts | 353° |
| 2026-05-06 02:12 | 40.89859 | -112.10933 | 9613 ft | 182 kts | 353° |
| 2026-05-06 02:12 | 40.91123 | -112.11083 | 9388 ft | 182 kts | 353° |
| 2026-05-06 02:12 | 40.92394 | -112.11234 | 9152 ft | 184 kts | 353° |
| 2026-05-06 02:13 | 40.93687 | -112.11351 | 8912 ft | 187 kts | 359° |
| 2026-05-06 02:13 | 40.94964 | -112.10986 | 8654 ft | 191 kts | 24° |
| 2026-05-06 02:13 | 40.96046 | -112.09988 | 8418 ft | 194 kts | 43° |
| 2026-05-06 02:13 | 40.96826 | -112.08559 | 8176 ft | 189 kts | 62° |
| 2026-05-06 02:14 | 40.97186 | -112.06911 | 7911 ft | 186 kts | 81° |
| 2026-05-06 02:14 | 40.97088 | -112.05201 | 7658 ft | 184 kts | 102° |
| 2026-05-06 02:14 | 40.96600 | -112.03692 | 7455 ft | 176 kts | 123° |
| 2026-05-06 02:14 | 40.95791 | -112.02511 | 7193 ft | 170 kts | 142° |
| 2026-05-06 02:15 | 40.94785 | -112.01734 | 6966 ft | 167 kts | 160° |
| 2026-05-06 02:15 | 40.94044 | -112.01481 | 6830 ft | 167 kts | 171° |
| 2026-05-06 02:15 | 40.91194 | -112.01118 | 6300 ft | 165 kts | 176° |
| 2026-05-06 02:16 | 40.90048 | -112.00990 | 6074 ft | 165 kts | 176° |
| 2026-05-06 02:16 | 40.88916 | -112.00865 | 5866 ft | 165 kts | 177° |
| 2026-05-06 02:16 | 40.87783 | -112.00737 | 5637 ft | 161 kts | 177° |
| 2026-05-06 02:16 | 40.86687 | -112.00611 | 5412 ft | 155 kts | 178° |
| 2026-05-06 02:17 | 40.85631 | -112.00477 | 5185 ft | 150 kts | 176° |
| 2026-05-06 02:17 | 40.84807 | -112.00356 | 5004 ft | 146 kts | 174° |
| 2026-05-06 02:17 | 40.83800 | -112.00229 | 4729 ft | 146 kts | 176° |
| 2026-05-06 02:17 | 40.82803 | -112.00136 | 4668 ft | 138 kts | 178° |
| 2026-05-06 02:18 | 40.81836 | -112.00065 | 4437 ft | 145 kts | 175° |
| 2026-05-06 02:18 | 40.80835 | -111.99933 | 4292 ft | 139 kts | 175° |
| 2026-05-06 02:18 | 40.79941 | -111.99833 | 4231 ft | 113 kts | 174° |
| 2026-05-06 02:18 | 40.79310 | -111.99757 | 4230 ft | 72 kts | 175° |
| 2026-05-06 02:19 | 40.78861 | -111.99709 | 4232 ft | 39 kts | 174° |
| 2026-05-06 02:19 | 40.78651 | -111.99682 | 4232 ft | 31 kts | 175° |
| 2026-05-06 02:19 | 40.78485 | -111.99577 | 4230 ft | 23 kts | 141° |
| 2026-05-06 02:19 | 40.78438 | -111.99499 | 4230 ft | 0 kts | 112° |
| 2026-05-06 02:20 | 40.78435 | -111.99484 | 4230 ft | 5 kts | 102° |
| 2026-05-06 02:21 | 40.78452 | -111.99436 | 4230 ft | 7 kts | 2° |
| 2026-05-06 02:21 | 40.78542 | -111.99452 | 4230 ft | 18 kts | 358° |
| 2026-05-06 02:21 | 40.78677 | -111.99466 | 4231 ft | 20 kts | 355° |
| 2026-05-06 02:21 | 40.78812 | -111.99482 | 4230 ft | 19 kts | 355° |
| 2026-05-06 02:22 | 40.78943 | -111.99497 | 4231 ft | 18 kts | 355° |
| 2026-05-06 02:22 | 40.79012 | -111.99506 | 4231 ft | 0 kts | 354° |
| 2026-05-06 02:23 | 40.79029 | -111.99508 | 4230 ft | 9 kts | 354° |
| 2026-05-06 02:23 | 40.79100 | -111.99514 | 4231 ft | 10 kts | 357° |
| 2026-05-06 02:23 | 40.79159 | -111.99478 | 4230 ft | 10 kts | 65° |
| 2026-05-06 02:23 | 40.79165 | -111.99390 | 4230 ft | 10 kts | 101° |
| 2026-05-06 02:24 | 40.79165 | -111.99318 | 4230 ft | 7 kts | 72° |
| 2026-05-06 02:24 | 40.79178 | -111.99253 | 4230 ft | 7 kts | 79° |
| 2026-05-06 02:24 | 40.79188 | -111.99182 | 4229 ft | 8 kts | 82° |
| 2026-05-06 02:24 | 40.79194 | -111.99112 | 4230 ft | 8 kts | 84° |
| 2026-05-06 02:25 | 40.79199 | -111.99043 | 4230 ft | 7 kts | 84° |
| 2026-05-06 02:25 | 40.79203 | -111.98978 | 4230 ft | 7 kts | 84° |
| 2026-05-06 02:25 | 40.79207 | -111.98914 | 4230 ft | 7 kts | 88° |
| 2026-05-06 02:25 | 40.79209 | -111.98851 | 4230 ft | 7 kts | 87° |
| 2026-05-06 02:26 | 40.79213 | -111.98789 | 4230 ft | 7 kts | 85° |
| 2026-05-06 02:26 | 40.79217 | -111.98712 | 4230 ft | 11 kts | 85° |
| 2026-05-06 02:26 | 40.79225 | -111.98599 | 4230 ft | 12 kts | 85° |
| 2026-05-06 02:26 | 40.79232 | -111.98488 | 4230 ft | 12 kts | 85° |
| 2026-05-06 02:27 | 40.79239 | -111.98377 | 4230 ft | 12 kts | 85° |
| 2026-05-06 02:27 | 40.79247 | -111.98270 | 4229 ft | 12 kts | 84° |
| 2026-05-06 02:27 | 40.79255 | -111.98166 | 4230 ft | 11 kts | 84° |
| 2026-05-06 02:27 | 40.79262 | -111.98065 | 4230 ft | 11 kts | 85° |
| 2026-05-06 02:28 | 40.79269 | -111.97966 | 4230 ft | 11 kts | 85° |
| 2026-05-06 02:28 | 40.79280 | -111.97872 | 4230 ft | 10 kts | 67° |
| 2026-05-06 02:28 | 40.79343 | -111.97846 | 4230 ft | 10 kts | 353° |
| 2026-05-06 02:28 | 40.79411 | -111.97858 | 4230 ft | 10 kts | 353° |
| 2026-05-06 02:29 | 40.79478 | -111.97867 | 4230 ft | 10 kts | 356° |
| 2026-05-06 02:29 | 40.79543 | -111.97872 | 4230 ft | 9 kts | 355° |
| 2026-05-06 02:29 | 40.79607 | -111.97879 | 4230 ft | 9 kts | 355° |
| 2026-05-06 02:29 | 40.79669 | -111.97885 | 4230 ft | 9 kts | 356° |
| 2026-05-06 02:30 | 40.79729 | -111.97890 | 4230 ft | 9 kts | 355° |
| 2026-05-06 02:30 | 40.79787 | -111.97896 | 4230 ft | 8 kts | 355° |
| 2026-05-06 02:30 | 40.79844 | -111.97903 | 4230 ft | 8 kts | 354° |
| 2026-05-06 02:30 | 40.79899 | -111.97910 | 4230 ft | 8 kts | 354° |
| 2026-05-06 02:31 | 40.79954 | -111.97916 | 4230 ft | 9 kts | 354° |
| 2026-05-06 02:31 | 40.80039 | -111.97929 | 4230 ft | 15 kts | 342° |
| 2026-05-06 02:31 | 40.80055 | -111.97966 | 4230 ft | 5 kts | 276° |
| 2026-05-06 02:31 | 40.80054 | -111.98003 | 4229 ft | 2 kts | 307° |
| 2026-05-06 02:32 | 40.80087 | -111.98024 | 4230 ft | 9 kts | 345° |
| 2026-05-06 02:32 | 40.80150 | -111.98035 | 4230 ft | 0 kts | 353° |
| 2026-05-06 02:32 | 40.80184 | -111.98067 | 4228 ft | 11 kts | 299° |
| 2026-05-06 02:32 | 40.80185 | -111.98169 | 4230 ft | 11 kts | 265° |
| 2026-05-06 02:33 | 40.80178 | -111.98268 | 4230 ft | 11 kts | 264° |
| 2026-05-06 02:33 | 40.80173 | -111.98333 | 4230 ft | 11 kts | 264° |
| 2026-05-06 02:33 | 40.80160 | -111.98550 | 4230 ft | 10 kts | 263° |
| 2026-05-06 02:34 | 40.80185 | -111.98621 | 4229 ft | 6 kts | 343° |
| 2026-05-06 02:34 | 40.80210 | -111.98627 | 4230 ft | 0 kts | 355° |
| 2026-05-06 02:34 | 40.80214 | -111.98627 | 4230 ft | 1 kts | 354° |
| 2026-05-06 02:34 | 40.80218 | -111.98628 | 4230 ft | 0 kts | 354° |
| 2026-05-06 02:35 | 40.80219 | -111.98628 | 4230 ft | 0 kts | 355° |